createdAt,value
2018-04-27T00:00:37.700Z,9.10
2018-04-27T00:03:03.804Z,9.10
2018-04-27T00:05:29.879Z,9.00
2018-04-27T00:07:56.703Z,9.00
2018-04-27T00:10:22.786Z,8.90
2018-04-27T00:12:48.865Z,8.90
2018-04-27T00:15:15.673Z,8.90
2018-04-27T00:17:41.777Z,8.80
2018-04-27T00:20:07.841Z,8.80
2018-04-27T00:22:34.676Z,8.70
2018-04-27T00:25:00.755Z,8.70
2018-04-27T00:27:26.845Z,8.60
2018-04-27T00:29:52.920Z,8.40
2018-04-27T00:32:19.008Z,8.30
2018-04-27T00:34:45.828Z,8.00
2018-04-27T00:37:11.908Z,7.90
2018-04-27T00:39:37.971Z,7.90
2018-04-27T00:42:04.045Z,7.80
2018-04-27T00:44:30.123Z,7.80
2018-04-27T00:46:56.211Z,7.70
2018-04-27T00:49:22.288Z,7.70
2018-04-27T00:51:48.360Z,7.70
2018-04-27T00:54:14.445Z,7.60
2018-04-27T00:56:41.259Z,7.60
2018-04-27T00:59:07.351Z,7.60
2018-04-27T01:01:33.428Z,7.70
2018-04-27T01:03:59.508Z,7.70
2018-04-27T01:06:25.593Z,7.80
2018-04-27T01:08:52.420Z,8.00
2018-04-27T01:11:19.981Z,8.10
2018-04-27T01:13:46.068Z,8.10
2018-04-27T01:16:12.140Z,8.20
2018-04-27T01:18:38.207Z,8.20
2018-04-27T01:21:04.267Z,8.30
2018-04-27T01:23:30.338Z,8.30
2018-04-27T01:25:56.409Z,8.30
2018-04-27T01:28:22.476Z,8.30
2018-04-27T01:30:49.300Z,8.30
2018-04-27T01:33:15.367Z,8.30
2018-04-27T01:35:41.451Z,8.30
2018-04-27T01:38:07.516Z,8.30
2018-04-27T01:40:33.592Z,8.20
2018-04-27T01:43:00.413Z,8.10
2018-04-27T01:45:26.493Z,8.10
2018-04-27T01:47:53.308Z,7.90
2018-04-27T01:50:19.384Z,7.90
2018-04-27T01:52:45.460Z,7.90
2018-04-27T01:55:11.540Z,7.80
2018-04-27T01:57:37.624Z,7.70
2018-04-27T02:00:04.432Z,7.40
2018-04-27T02:02:30.512Z,7.40
2018-04-27T02:04:56.593Z,7.30
2018-04-27T02:07:22.670Z,7.20
2018-04-27T02:09:48.742Z,7.10
2018-04-27T02:12:14.818Z,6.90
2018-04-27T02:14:40.905Z,6.90
2018-04-27T02:17:06.983Z,6.80
2018-04-27T02:19:33.056Z,6.70
2018-04-27T02:21:59.140Z,6.60
2018-04-27T02:24:25.217Z,6.60
2018-04-27T02:26:52.044Z,6.60
2018-04-27T02:29:18.117Z,6.50
2018-04-27T02:31:44.184Z,6.60
2018-04-27T02:34:10.265Z,6.60
2018-04-27T02:36:36.344Z,6.60
2018-04-27T02:39:02.421Z,6.60
2018-04-27T02:41:28.492Z,6.50
2018-04-27T02:43:54.583Z,6.40
2018-04-27T02:46:20.667Z,6.30
2018-04-27T02:48:47.496Z,6.10
2018-04-27T02:51:14.320Z,6.10
2018-04-27T02:53:40.412Z,6.00
2018-04-27T02:56:06.516Z,6.00
2018-04-27T02:58:32.611Z,6.00
2018-04-27T03:00:58.692Z,5.90
2018-04-27T03:03:24.784Z,5.90
2018-04-27T03:05:51.624Z,5.90
2018-04-27T03:08:18.452Z,5.80
2018-04-27T03:10:44.544Z,5.80
2018-04-27T03:13:10.632Z,5.80
2018-04-27T03:15:36.732Z,5.80
2018-04-27T03:18:02.815Z,5.70
2018-04-27T03:20:28.907Z,5.70
2018-04-27T03:22:54.987Z,5.70
2018-04-27T03:25:21.084Z,5.60
2018-04-27T03:27:47.172Z,5.60
2018-04-27T03:30:14.008Z,5.60
2018-04-27T03:32:40.832Z,5.60
2018-04-27T03:35:06.923Z,5.60
2018-04-27T03:37:33.016Z,5.70
2018-04-27T03:39:59.120Z,5.80
2018-04-27T03:42:25.952Z,6.00
2018-04-27T03:44:52.067Z,6.00
2018-04-27T03:47:18.152Z,6.20
2018-04-27T03:49:44.248Z,6.30
2018-04-27T03:52:11.096Z,6.50
2018-04-27T03:54:37.188Z,6.50
2018-04-27T03:57:03.285Z,6.60
2018-04-27T03:59:48.163Z,6.70
2018-04-27T04:02:32.940Z,6.70
2018-04-27T04:05:17.604Z,6.70
2018-04-27T04:07:43.696Z,6.70
2018-04-27T04:10:09.785Z,6.80
2018-04-27T04:12:36.616Z,6.90
2018-04-27T04:15:02.692Z,6.80
2018-04-27T04:17:28.783Z,6.90
2018-04-27T04:19:55.603Z,7.10
2018-04-27T04:22:21.688Z,7.10
2018-04-27T04:24:47.776Z,7.20
2018-04-27T04:27:13.867Z,7.30
2018-04-27T04:29:39.950Z,7.50
2018-04-27T04:32:06.064Z,7.60
2018-04-27T04:34:32.140Z,7.70
2018-04-27T04:36:58.228Z,7.80
2018-04-27T04:39:24.314Z,7.90
2018-04-27T04:41:51.153Z,8.10
2018-04-27T04:44:17.248Z,8.00
2018-04-27T04:46:44.084Z,8.30
2018-04-27T04:49:10.179Z,8.30
2018-04-27T04:51:36.264Z,8.50
2018-04-27T04:54:02.348Z,8.60
2018-04-27T04:56:28.428Z,8.80
2018-04-27T04:58:55.249Z,9.10
2018-04-27T05:01:21.329Z,9.10
2018-04-27T05:03:47.420Z,9.30
2018-04-27T05:06:14.240Z,9.60
2018-04-27T05:08:40.324Z,9.60
2018-04-27T05:11:06.413Z,9.70
2018-04-27T05:13:32.479Z,9.80
2018-04-27T05:15:58.568Z,9.80
2018-04-27T05:21:32.200Z,10.10
2018-04-27T05:23:59.015Z,11.00
2018-04-27T05:26:25.084Z,11.00
2018-04-27T05:28:51.152Z,11.70
2018-04-27T05:31:23.184Z,12.30
2018-04-27T05:33:49.272Z,12.70
2018-04-27T05:36:16.096Z,14.20
2018-04-27T05:38:42.164Z,14.20
2018-04-27T05:41:08.229Z,14.80
2018-04-27T05:43:34.292Z,15.40
2018-04-27T05:46:01.112Z,16.40
2018-04-27T05:48:27.167Z,16.40
2018-04-27T05:50:53.973Z,16.50
2018-04-27T05:53:20.044Z,16.50
2018-04-27T05:55:46.128Z,16.30
2018-04-27T05:58:12.216Z,16.20
2018-04-27T06:00:38.324Z,16.10
2018-04-27T06:03:04.415Z,16.40
2018-04-27T06:05:31.979Z,17.80
2018-04-27T06:07:58.071Z,17.80
2018-04-27T06:10:24.143Z,18.70
2018-04-27T06:12:50.981Z,20.00
2018-04-27T06:15:17.792Z,20.00
2018-04-27T06:17:43.888Z,20.00
2018-04-27T06:20:09.988Z,19.70
2018-04-27T06:22:36.075Z,19.60
2018-04-27T06:25:02.157Z,19.50
2018-04-27T06:27:28.258Z,19.30
2018-04-27T06:29:54.341Z,19.30
2018-04-27T06:32:20.452Z,19.20
2018-04-27T06:34:46.552Z,19.20
2018-04-27T06:37:12.641Z,19.60
2018-04-27T06:39:38.732Z,20.20
2018-04-27T06:42:04.801Z,20.50
2018-04-27T06:44:31.628Z,20.90
2018-04-27T06:46:57.713Z,20.80
2018-04-27T06:49:23.804Z,21.00
2018-04-27T06:51:50.621Z,21.00
2018-04-27T06:54:16.725Z,21.00
2018-04-27T06:56:42.803Z,20.80
2018-04-27T06:59:08.949Z,20.50
2018-04-27T07:01:35.724Z,20.10
2018-04-27T07:04:01.801Z,20.10
2018-04-27T07:06:27.889Z,20.40
2018-04-27T07:08:53.965Z,20.80
2018-04-27T07:11:20.039Z,20.80
2018-04-27T07:13:46.155Z,20.40
2018-04-27T07:16:12.980Z,20.00
2018-04-27T07:18:39.068Z,20.00
2018-04-27T07:21:05.173Z,19.60
2018-04-27T07:23:32.000Z,19.60
2018-04-27T07:25:58.147Z,19.50
2018-04-27T07:28:24.196Z,19.80
2018-04-27T07:30:50.284Z,19.80
2018-04-27T07:33:16.380Z,19.60
2018-04-27T07:35:42.480Z,19.50
2018-04-27T07:38:08.556Z,19.50
2018-04-27T07:40:34.640Z,19.40
2018-04-27T07:43:00.719Z,19.40
2018-04-27T07:45:27.552Z,19.40
2018-04-27T07:47:53.636Z,19.40
2018-04-27T07:50:19.738Z,19.60
2018-04-27T07:52:45.824Z,19.70
2018-04-27T07:55:11.921Z,19.80
2018-04-27T07:57:51.689Z,19.90
2018-04-27T08:00:17.767Z,19.90
2018-04-27T08:02:43.837Z,19.90
2018-04-27T08:05:09.900Z,19.80
2018-04-27T08:07:35.972Z,19.80
2018-04-27T08:10:02.043Z,19.90
2018-04-27T08:12:28.853Z,20.10
2018-04-27T08:14:54.920Z,20.10
2018-04-27T08:17:20.996Z,20.20
2018-04-27T08:19:47.056Z,20.40
2018-04-27T08:22:13.870Z,20.80
2018-04-27T08:24:39.937Z,20.80
2018-04-27T08:27:06.012Z,21.00
2018-04-27T08:29:32.080Z,21.20
2018-04-27T08:31:58.888Z,21.40
2018-04-27T08:34:24.944Z,21.40
2018-04-27T08:36:51.761Z,22.10
2018-04-27T08:39:17.840Z,22.10
2018-04-27T08:41:43.914Z,22.50
2018-04-27T08:44:09.993Z,22.80
2018-04-27T08:46:36.074Z,22.80
2018-04-27T08:49:02.157Z,23.10
2018-04-27T08:51:28.220Z,23.50
2018-04-27T08:53:54.299Z,23.70
2018-04-27T08:56:20.375Z,23.70
2018-04-27T08:58:46.456Z,23.50
2018-04-27T09:01:12.548Z,23.50
2018-04-27T09:03:39.380Z,23.70
2018-04-27T09:06:06.192Z,23.90
2018-04-27T09:08:32.289Z,23.90
2018-04-27T09:10:58.374Z,24.10
2018-04-27T09:13:24.460Z,24.30
2018-04-27T09:15:50.542Z,24.40
2018-04-27T09:18:16.624Z,24.40
2018-04-27T09:20:42.709Z,24.30
2018-04-27T09:23:08.789Z,24.10
2018-04-27T09:25:34.879Z,23.70
2018-04-27T09:28:00.960Z,23.40
2018-04-27T09:30:27.787Z,23.40
2018-04-27T09:32:53.868Z,23.40
2018-04-27T09:35:19.956Z,23.60
2018-04-27T09:37:46.048Z,23.60
2018-04-27T09:40:12.124Z,23.60
2018-04-27T09:42:38.197Z,23.50
2018-04-27T09:45:04.282Z,23.70
2018-04-27T09:47:30.362Z,23.90
2018-04-27T09:49:56.460Z,24.10
2018-04-27T09:52:22.552Z,24.30
2018-04-27T09:54:48.640Z,24.50
2018-04-27T09:57:15.472Z,25.00
2018-04-27T09:59:41.567Z,25.00
2018-04-27T10:02:07.672Z,25.10
2018-04-27T10:04:33.744Z,25.20
2018-04-27T10:06:59.827Z,25.30
2018-04-27T10:09:25.920Z,25.50
2018-04-27T10:11:52.752Z,26.00
2018-04-27T10:14:19.568Z,26.00
2018-04-27T10:16:45.665Z,26.00
2018-04-27T10:19:11.753Z,25.90
2018-04-27T10:21:38.583Z,24.70
2018-04-27T10:24:04.669Z,24.70
2018-04-27T10:26:30.766Z,23.90
2018-04-27T10:28:56.848Z,23.20
2018-04-27T10:31:24.424Z,22.50
2018-04-27T10:33:50.515Z,22.50
2018-04-27T10:36:16.588Z,22.40
2018-04-27T10:38:43.428Z,23.40
2018-04-27T10:41:09.512Z,23.30
2018-04-27T10:43:35.594Z,23.80
2018-04-27T10:46:01.665Z,24.40
2018-04-27T10:48:27.727Z,24.80
2018-04-27T10:50:54.536Z,24.50
2018-04-27T10:53:20.604Z,24.50
2018-04-27T10:55:46.696Z,23.60
2018-04-27T10:58:12.776Z,23.00
2018-04-27T11:00:38.858Z,22.70
2018-04-27T11:03:04.928Z,22.90
2018-04-27T11:05:31.003Z,23.80
2018-04-27T11:07:57.076Z,24.60
2018-04-27T11:10:23.160Z,24.80
2018-04-27T11:12:49.248Z,24.90
2018-04-27T11:15:15.324Z,25.20
2018-04-27T11:17:42.161Z,25.50
2018-04-27T11:20:08.997Z,25.60
2018-04-27T11:22:35.808Z,25.50
2018-04-27T11:25:16.796Z,25.50
2018-04-27T11:27:42.868Z,25.40
2018-04-27T11:30:08.960Z,25.30
2018-04-27T11:32:35.036Z,25.40
2018-04-27T11:35:01.129Z,25.40
2018-04-27T11:37:27.943Z,24.70
2018-04-27T11:39:54.033Z,24.70
2018-04-27T11:42:20.115Z,24.40
2018-04-27T11:44:46.972Z,24.70
2018-04-27T11:47:13.792Z,25.00
2018-04-27T11:49:39.871Z,25.00
2018-04-27T11:52:05.963Z,25.00
2018-04-27T11:54:32.777Z,24.50
2018-04-27T11:57:17.225Z,24.50
2018-04-27T12:00:05.718Z,24.20
2018-04-27T12:02:49.316Z,24.00
2018-04-27T12:05:23.799Z,23.90
2018-04-27T12:07:53.355Z,24.30
2018-04-27T12:10:25.208Z,25.10
2018-04-27T12:12:51.280Z,25.10
2018-04-27T12:15:17.344Z,25.40
2018-04-27T12:17:43.431Z,25.60
2018-04-27T12:20:09.511Z,25.70
2018-04-27T12:22:36.684Z,25.90
2018-04-27T12:25:03.513Z,25.70
2018-04-27T12:27:29.590Z,25.70
2018-04-27T12:29:55.667Z,25.70
2018-04-27T12:32:33.920Z,25.10
2018-04-27T12:35:00.044Z,25.10
2018-04-27T12:37:26.227Z,24.90
2018-04-27T12:39:52.285Z,24.90
2018-04-27T12:42:18.347Z,24.50
2018-04-27T12:44:44.411Z,24.00
2018-04-27T12:47:10.485Z,23.60
2018-04-27T12:49:36.541Z,23.10
2018-04-27T12:52:02.606Z,23.00
2018-04-27T12:54:28.676Z,23.30
2018-04-27T12:56:54.728Z,23.80
2018-04-27T12:59:20.806Z,24.20
2018-04-27T13:01:46.883Z,24.40
2018-04-27T13:04:13.692Z,25.00
2018-04-27T13:10:04.485Z,25.10
2018-04-27T13:12:30.579Z,24.90
2018-04-27T13:14:57.389Z,25.00
2018-04-27T13:17:23.457Z,25.00
2018-04-27T13:19:50.260Z,25.30
2018-04-27T13:22:16.346Z,25.30
2018-04-27T13:24:42.422Z,25.70
2018-04-27T13:27:08.498Z,26.10
2018-04-27T13:29:34.590Z,26.40
2018-04-27T13:32:01.424Z,26.40
2018-04-27T13:34:27.514Z,26.40
2018-04-27T13:36:53.679Z,26.40
2018-04-27T13:39:19.760Z,26.30
2018-04-27T13:41:45.828Z,26.50
2018-04-27T13:44:11.933Z,26.40
2018-04-27T13:46:38.000Z,26.10
2018-04-27T13:49:04.065Z,26.00
2018-04-27T13:51:30.146Z,26.00
2018-04-27T13:53:56.960Z,26.20
2018-04-27T13:56:23.051Z,26.20
2018-04-27T13:58:49.127Z,26.20
2018-04-27T14:01:15.967Z,26.10
2018-04-27T14:03:42.793Z,26.00
2018-04-27T14:06:08.877Z,25.90
2018-04-27T14:08:34.944Z,26.00
2018-04-27T14:11:01.030Z,26.00
2018-04-27T14:13:27.099Z,26.10
2018-04-27T14:15:53.929Z,25.90
2018-04-27T14:18:19.994Z,25.90
2018-04-27T14:20:46.808Z,25.80
2018-04-27T14:23:12.897Z,25.80
2018-04-27T14:25:38.999Z,25.90
2018-04-27T14:28:05.088Z,25.90
2018-04-27T14:30:31.189Z,25.90
2018-04-27T14:32:57.283Z,26.10
2018-04-27T14:35:23.373Z,26.10
2018-04-27T14:37:50.214Z,26.10
2018-04-27T14:40:16.301Z,26.10
2018-04-27T14:42:42.389Z,26.10
2018-04-27T14:45:08.476Z,26.10
2018-04-27T14:47:34.573Z,26.00
2018-04-27T14:50:00.660Z,25.80
2018-04-27T14:52:27.528Z,26.00
2018-04-27T14:54:53.588Z,26.00
2018-04-27T14:57:19.677Z,26.00
2018-04-27T14:59:45.756Z,26.00
2018-04-27T15:02:11.821Z,25.80
2018-04-27T15:04:37.913Z,25.80
2018-04-27T15:07:04.724Z,25.50
2018-04-27T15:09:30.832Z,25.50
2018-04-27T15:11:56.912Z,25.50
2018-04-27T15:14:23.727Z,25.60
2018-04-27T15:16:49.820Z,25.50
2018-04-27T15:19:16.231Z,25.50
2018-04-27T15:21:42.324Z,25.40
2018-04-27T15:24:08.435Z,25.20
2018-04-27T15:26:34.501Z,25.20
2018-04-27T15:29:00.588Z,25.10
2018-04-27T15:31:26.677Z,25.00
2018-04-27T15:33:52.765Z,24.90
2018-04-27T15:36:19.583Z,24.80
2018-04-27T15:38:46.417Z,24.60
2018-04-27T15:41:12.492Z,24.60
2018-04-27T15:43:38.597Z,24.50
2018-04-27T15:46:05.416Z,24.50
2018-04-27T15:48:31.497Z,24.50
2018-04-27T15:50:57.591Z,24.30
2018-04-27T15:53:24.411Z,23.70
2018-04-27T15:55:50.512Z,23.60
2018-04-27T15:58:16.596Z,23.40
2018-04-27T16:00:43.421Z,22.90
2018-04-27T16:03:10.240Z,22.60
2018-04-27T16:05:36.332Z,22.60
2018-04-27T16:08:02.411Z,22.40
2018-04-27T16:10:28.509Z,22.00
2018-04-27T16:12:54.579Z,21.80
2018-04-27T16:15:21.419Z,21.50
2018-04-27T16:17:48.236Z,21.50
2018-04-27T16:20:14.340Z,21.50
2018-04-27T16:22:40.412Z,21.50
2018-04-27T16:25:07.220Z,21.60
2018-04-27T16:27:33.308Z,21.60
2018-04-27T16:29:59.383Z,21.50
2018-04-27T16:32:25.461Z,21.30
2018-04-27T16:34:51.535Z,21.20
2018-04-27T16:37:17.619Z,21.00
2018-04-27T16:39:43.691Z,20.80
2018-04-27T16:42:09.786Z,20.70
2018-04-27T16:44:36.608Z,20.50
2018-04-27T16:47:02.700Z,20.50
2018-04-27T16:49:29.528Z,20.30
2018-04-27T16:51:55.617Z,20.30
2018-04-27T16:54:21.700Z,20.20
2018-04-27T16:56:48.519Z,20.00
2018-04-27T16:59:14.587Z,20.00
2018-04-27T17:01:40.676Z,19.90
2018-04-27T17:04:06.737Z,19.80
2018-04-27T17:06:32.813Z,19.70
2018-04-27T17:08:58.880Z,19.60
2018-04-27T17:11:24.940Z,19.40
2018-04-27T17:13:51.012Z,19.30
2018-04-27T17:16:17.812Z,19.10
2018-04-27T17:18:43.880Z,19.00
2018-04-27T17:21:10.691Z,18.90
2018-04-27T17:23:36.764Z,18.90
2018-04-27T17:26:02.828Z,18.90
2018-04-27T17:28:28.886Z,18.80
2018-04-27T17:30:54.943Z,18.80
2018-04-27T17:33:21.036Z,18.60
2018-04-27T17:35:47.859Z,18.40
2018-04-27T17:38:14.651Z,18.30
2018-04-27T17:40:40.717Z,18.30
2018-04-27T17:43:06.783Z,18.10
2018-04-27T17:45:33.588Z,17.80
2018-04-27T17:47:59.651Z,17.80
2018-04-27T17:50:26.472Z,17.30
2018-04-27T17:52:52.548Z,17.30
2018-04-27T17:55:18.628Z,17.10
2018-04-27T17:57:44.696Z,16.90
2018-04-27T18:00:10.764Z,16.60
2018-04-27T18:02:36.836Z,16.40
2018-04-27T18:05:02.912Z,16.30
2018-04-27T18:07:29.019Z,16.10
2018-04-27T18:09:55.100Z,15.90
2018-04-27T18:12:21.916Z,15.70
2018-04-27T18:14:47.980Z,15.70
2018-04-27T18:17:14.056Z,15.60
2018-04-27T18:19:40.127Z,15.40
2018-04-27T18:22:12.828Z,15.20
2018-04-27T18:24:38.904Z,15.10
2018-04-27T18:27:04.972Z,15.00
2018-04-27T18:29:31.032Z,14.90
2018-04-27T18:31:57.112Z,14.70
2018-04-27T18:34:23.184Z,14.60
2018-04-27T18:36:49.239Z,14.40
2018-04-27T18:39:16.124Z,14.20
2018-04-27T18:41:42.132Z,14.20
2018-04-27T18:44:08.207Z,14.10
2018-04-27T18:46:34.264Z,14.10
2018-04-27T18:49:01.069Z,13.90
2018-04-27T18:51:27.217Z,13.90
2018-04-27T18:53:53.209Z,13.90
2018-04-27T18:56:20.156Z,13.80
2018-04-27T18:58:47.160Z,13.70
2018-04-27T19:01:14.282Z,13.70
2018-04-27T19:03:41.153Z,13.50
2018-04-27T19:06:07.209Z,13.40
2018-04-27T19:08:33.267Z,13.40
2018-04-27T19:10:59.336Z,13.20
2018-04-27T19:13:25.396Z,13.10
2018-04-27T19:15:51.459Z,13.10
2018-04-27T19:18:18.264Z,12.90
2018-04-27T19:20:44.328Z,12.90
2018-04-27T19:23:12.035Z,12.80
2018-04-27T19:25:39.036Z,12.80
2018-04-27T19:28:05.829Z,12.80
2018-04-27T19:30:31.909Z,12.70
2018-04-27T19:32:58.712Z,12.90
2018-04-27T19:35:24.788Z,12.90
2018-04-27T19:37:50.854Z,12.90
2018-04-27T19:40:16.912Z,13.00
2018-04-27T19:42:43.737Z,13.00
2018-04-27T19:45:09.806Z,13.00
2018-04-27T19:47:35.887Z,12.90
2018-04-27T19:50:01.961Z,12.80
2018-04-27T19:52:28.028Z,12.80
2018-04-27T19:54:54.109Z,12.70
2018-04-27T19:57:20.184Z,12.60
2018-04-27T19:59:46.317Z,12.50
2018-04-27T20:02:12.400Z,12.50
2018-04-27T20:04:38.459Z,12.40
2018-04-27T20:07:04.532Z,12.30
2018-04-27T20:09:30.589Z,12.20
2018-04-27T20:11:57.400Z,12.00
2018-04-27T20:14:30.375Z,12.00
2018-04-27T20:16:59.299Z,11.80
2018-04-27T20:19:25.286Z,11.80
2018-04-27T20:21:52.089Z,11.60
2018-04-27T20:24:18.189Z,11.60
2018-04-27T20:26:44.225Z,11.50
2018-04-27T20:29:27.620Z,11.40
2018-04-27T20:31:53.680Z,11.30
2018-04-27T20:34:19.749Z,11.20
2018-04-27T20:36:46.548Z,11.00
2018-04-27T20:39:12.615Z,11.00
2018-04-27T20:41:39.416Z,10.90
2018-04-27T20:44:05.488Z,10.90
2018-04-27T20:46:32.301Z,10.80
2018-04-27T20:48:58.363Z,10.80
2018-04-27T20:51:25.172Z,10.70
2018-04-27T20:53:56.264Z,10.70
2018-04-27T20:56:25.252Z,10.60
2018-04-27T20:58:51.333Z,10.60
2018-04-27T21:01:17.403Z,10.50
2018-04-27T21:03:43.503Z,10.40
2018-04-27T21:06:10.324Z,10.30
2018-04-27T21:08:36.388Z,10.30
2018-04-27T21:11:03.212Z,10.30
2018-04-27T21:13:30.033Z,10.20
2018-04-27T21:15:56.110Z,10.20
2018-04-27T21:18:27.115Z,10.20
2018-04-27T21:20:53.948Z,10.10
2018-04-27T21:23:20.033Z,10.10
2018-04-27T21:25:46.122Z,10.10
2018-04-27T21:28:12.940Z,10.00
2018-04-27T21:30:39.029Z,10.00
2018-04-27T21:33:05.928Z,10.00
2018-04-27T21:35:35.808Z,9.90
2018-04-27T21:41:21.537Z,9.90
2018-04-27T21:43:47.614Z,9.80
2018-04-27T21:46:28.772Z,9.80
2018-04-27T21:49:16.704Z,9.70
2018-04-27T21:51:55.352Z,9.70
2018-04-27T21:54:49.029Z,9.70
2018-04-27T21:57:16.142Z,9.70
2018-04-27T22:03:01.145Z,9.60
2018-04-27T22:06:06.004Z,9.60
2018-04-27T22:08:39.247Z,9.50
2018-04-27T22:11:06.287Z,9.50
2018-04-27T22:13:39.420Z,9.50
2018-04-27T22:16:18.787Z,9.50
2018-04-27T22:18:44.860Z,9.50
2018-04-27T22:21:11.660Z,9.50
2018-04-27T22:24:06.961Z,9.50
2018-04-27T22:26:53.516Z,9.50
2018-04-27T22:29:25.776Z,9.50
2018-04-27T22:31:51.851Z,9.50
2018-04-27T22:34:23.029Z,9.50
2018-04-27T22:40:07.032Z,9.70
2018-04-27T22:42:46.741Z,9.70
2018-04-27T22:45:16.663Z,9.70
2018-04-27T22:47:42.794Z,9.70
2018-04-27T22:53:09.352Z,9.80
2018-04-27T22:55:35.441Z,9.80
2018-04-27T22:58:34.958Z,9.80
2018-04-27T23:04:08.466Z,9.80
2018-04-27T23:06:48.958Z,9.80
2018-04-27T23:09:15.045Z,9.80
2018-04-27T23:11:52.363Z,9.90
2018-04-27T23:14:27.622Z,9.90
2018-04-27T23:16:53.723Z,9.90
2018-04-27T23:19:33.225Z,10.00
2018-04-27T23:25:19.833Z,9.90
2018-04-27T23:27:46.672Z,9.90
2018-04-27T23:30:20.321Z,10.00
2018-04-27T23:32:46.415Z,10.00
2018-04-27T23:35:12.506Z,10.00
2018-04-27T23:37:38.606Z,10.00
2018-04-27T23:40:04.693Z,10.00
2018-04-27T23:42:30.789Z,10.00
2018-04-27T23:44:56.869Z,10.00
2018-04-27T23:47:22.961Z,10.00
2018-04-27T23:49:49.791Z,10.10
2018-04-27T23:52:16.625Z,10.10
2018-04-27T23:54:42.723Z,10.10
2018-04-27T23:57:08.833Z,10.10
2018-04-27T23:59:35.861Z,10.10
